Flight Track Log - Related Links

Times and Time Zones

All times are in EDT time to prevent confusion due to time zone crossing. See the EJA122 flight status page for this flight to view local times or setup timezone preferences in your user account.

Time Position Orientation Groundspeed Altitude Reporting Facility
EDT Latitude Longitude Course Direction KTS MPH feet Rate Location/Type
Fri 08:10:14 AM 43.6667 -79.5833 216° Southwest 10 12 500  Level Toronto Center
Fri 08:14:48 AM 43.6333 -79.6167 216° Southwest 170 196 1,800 701 Climbing Toronto Center
Fri 08:15:48 AM 43.5833 -79.6500 206° Southwest 210 242 4,400 1,600 Climbing Toronto Center
Fri 08:16:48 AM 43.5500 -79.5833 125° Southeast 280 322 5,000 850 Climbing Toronto Center
Fri 08:17:48 AM 43.5167 -79.5000 119° Southeast 280 322 6,100 1,050 Climbing Toronto Center
Fri 08:18:48 AM 43.5000 -79.3833 101° East 290 334 7,100 1,600 Climbing Toronto Center
Fri 08:19:48 AM 43.5333 -79.2667 68° East 310 357 9,300 1,900 Climbing Toronto Center
Fri 08:20:48 AM 43.5667 -79.1500 68° East 320 368 10,900 1,350 Climbing Toronto Center
Fri 08:21:48 AM 43.6000 -79.0167 71° East 360 414 12,000 1,350 Climbing Toronto Center
Fri 08:22:48 AM 43.6333 -78.8667 73° East 390 449 13,600 1,600 Climbing Toronto Center
Fri 08:23:48 AM 43.6833 -78.7333 63° Northeast 400 460 15,200 1,550 Climbing Toronto Center
Fri 08:24:48 AM 43.7167 -78.5667 74° East 400 460 16,700 1,200 Climbing Toronto Center
Fri 08:25:48 AM 43.7500 -78.4500 68° East 400 460 17,600 767 Climbing Toronto Center
Fri 08:27:48 AM 43.8333 -78.1500 69° East 410 472 19,000 667 Climbing Toronto Center
Fri 08:28:48 AM 43.8833 -77.9833 67° East 410 472 19,600 550 Climbing Toronto Center
Fri 08:29:48 AM 43.9333 -77.8500 62° Northeast 420 483 20,100 500 Climbing Toronto Center
Fri 08:30:48 AM 43.9833 -77.7167 62° Northeast 420 483 20,600 750 Climbing Toronto Center
Fri 08:31:48 AM 44.0167 -77.5667 73° East 410 472 21,600 950 Climbing Toronto Center
Fri 08:32:48 AM 44.0667 -77.4333 62° Northeast 410 472 22,500 1,000 Climbing Toronto Center
Fri 08:33:48 AM 44.1167 -77.2833 65° Northeast 400 460 23,600 1,050 Climbing Toronto Center
Fri 08:34:48 AM 44.1833 -77.1667 51° Northeast 400 460 24,600 1,000 Climbing Toronto Center
Fri 08:35:48 AM 44.2333 -77.0333 62° Northeast 390 449 25,600 1,000 Climbing Toronto Center
Fri 08:36:48 AM 44.3000 -76.9000 55° Northeast 400 460 26,600 700 Climbing Toronto Center
Fri 08:37:48 AM 44.3667 -76.7667 55° Northeast 410 472 27,000 200 Climbing Toronto Center
Fri 08:38:48 AM 44.4167 -76.6167 65° Northeast 430 495 27,000  Level Toronto Center
Fri 08:39:48 AM 44.4833 -76.4833 55° Northeast 450 518 27,000  Level Toronto Center
Fri 08:40:48 AM 44.5667 -76.3333 52° Northeast 460 529 27,000  Level Toronto Center
Fri 08:41:48 AM 44.6333 -76.1667 61° Northeast 460 529 27,000  Level Toronto Center
Fri 08:42:48 AM 44.6667 -76.0000 74° East 470 541 27,000  Level Toronto Center
Fri 08:43:48 AM 44.7167 -75.8333 67° East 470 541 27,000  Level Toronto Center
Fri 08:44:48 AM 44.7667 -75.6667 67° East 470 541 27,000  Level Toronto Center
Fri 08:45:48 AM 44.8167 -75.5000 67° East 470 541 27,000  Level Toronto Center
Fri 08:46:48 AM 44.8833 -75.3167 63° Northeast 470 541 27,000 -700 Level Toronto Center
Fri 08:47:48 AM 44.9333 -75.1500 67° East 470 541 25,600 -1,800 Descending Toronto Center
Fri 08:48:48 AM 44.9833 -74.9833 67° East 480 552 23,400 -2,100 Descending Toronto Center
Fri 08:49:48 AM 45.0500 -74.8167 60° Northeast 470 541 21,400 -2,000 Descending Toronto Center
Fri 08:50:48 AM 45.1000 -74.6667 65° Northeast 450 518 19,400 -1,900 Descending Toronto Center
Fri 08:51:48 AM 45.1500 -74.5167 65° Northeast 440 506 17,600 -1,850 Descending Toronto Center
Fri 08:52:48 AM 45.2167 -74.3500 60° Northeast 430 495 15,700 -1,900 Descending Toronto Center
Fri 08:53:48 AM 45.2500 -74.2333 68° East 420 483 13,800 -1,850 Descending Toronto Center
Fri 08:54:48 AM 45.3167 -74.0833 58° Northeast 390 449 12,000 -1,610 Descending Toronto Center
Fri 08:55:51 AM 45.3667 -74.0167 43° Northeast 310 357 10,500 -1,366 Descending Montreal Center
Fri 08:56:51 AM 45.4333 -73.9333 41° Northeast 300 345 9,200 -1,450 Descending Montreal Center
Fri 08:57:51 AM 45.5000 -73.8333 46° Northeast 300 345 7,600 -1,550 Descending Montreal Center
Fri 08:58:51 AM 45.5500 -73.7667 43° Northeast 290 334 6,100 -1,600 Descending Montreal Center
Fri 08:59:51 AM 45.6000 -73.6667 54° Northeast 290 334 4,400 -1,550 Descending Montreal Center
Fri 09:00:51 AM 45.6167 -73.6000 70° East 250 288 3,000 -700 Descending Montreal Center
Fri 09:01:51 AM 45.5833 -73.5667 145° Southeast 190 219 3,000 -500 Level Montreal Center
Fri 09:02:51 AM 45.5333 -73.6167 215° Southwest 180 207 2,000 -950 Descending Montreal Center
Fri 09:03:51 AM 45.5000 -73.6500 215° Southwest 140 161 1,100 -800 Descending Montreal Center
Fri 09:04:51 AM 45.4833 -73.7000 245° Southwest 130 150 400 -500 Descending Montreal Center
Fri 09:05:51 AM 45.4500 -73.7167 199° South 50 58 100 -100 Descending Montreal Center
Fri 09:07:51 AM 45.4500 -73.7000 90° East 150 173 100  Level Montreal Center

Login

Don't have an account? Register now (free) for customized features, flight alerts, and more!